Weather at Jebel Dhanna Airport

Public forecast

Using degrees Celsius for public forecast. Weather courtesy of forecast.io.

Closest aviation weather report (METAR) to Jebel Dhanna Airport

Closest report is Hamad International Airport, 85.2 nm (157.7 km) NW.

2024/06/13 10:00 (retrieved 49 minutes ago)

OTHH 131000Z 01007KT CAVOK 40/14 Q1001 NOSIG

Closest aviation forecast (TAF) to Jebel Dhanna Airport

Forecast is more than 12 hours old.

Closest forecast is Hamad International Airport, 85.2 nm (157.7 km) NW.

2024/06/12 06:00 (retrieved 1 day ago)

TAF OTHH 120506Z 1206/1312 22009KT CAVOK TEMPO 1206/1211 15009KT TEMPO 1212/1216 04009KT BECMG 1217/1219 33009KT